createdAt,value
2023-05-19T00:01:17.599Z,6.35
2023-05-19T00:03:57.466Z,4.50
2023-05-19T00:06:25.632Z,8.00
2023-05-19T00:08:57.983Z,7.47
2023-05-19T00:11:26.842Z,5.30
2023-05-19T00:13:54.804Z,7.82
2023-05-19T00:16:23.109Z,5.78
2023-05-19T00:18:50.309Z,7.57
2023-05-19T00:21:17.497Z,5.78
2023-05-19T00:23:44.365Z,6.75
2023-05-19T00:26:11.612Z,10.98
2023-05-19T00:28:40.533Z,9.07
2023-05-19T00:31:07.250Z,7.82
2023-05-19T00:33:34.266Z,7.05
2023-05-19T00:36:05.795Z,7.28
2023-05-19T00:38:34.008Z,12.30
2023-05-19T00:41:02.230Z,7.45
2023-05-19T00:43:30.404Z,8.88
2023-05-19T00:45:57.857Z,8.45
2023-05-19T00:48:26.323Z,6.85
2023-05-19T00:50:55.945Z,3.85
2023-05-19T00:53:24.537Z,3.85
2023-05-19T00:55:51.440Z,10.57
2023-05-19T00:58:19.220Z,6.07
2023-05-19T01:00:46.254Z,10.48
2023-05-19T01:03:13.343Z,4.47
2023-05-19T01:05:53.603Z,7.10
2023-05-19T01:08:20.565Z,9.88
2023-05-19T01:10:47.431Z,7.68
2023-05-19T01:13:14.557Z,6.45
2023-05-19T01:16:22.288Z,9.43
2023-05-19T01:19:14.220Z,8.82
2023-05-19T01:21:52.863Z,7.68
2023-05-19T01:24:57.821Z,9.00
2023-05-19T01:27:25.051Z,6.68
2023-05-19T01:30:23.247Z,7.50
2023-05-19T01:32:53.325Z,8.73
2023-05-19T01:35:24.754Z,7.28
2023-05-19T01:38:02.678Z,5.53
2023-05-19T01:40:30.996Z,11.00
2023-05-19T01:42:59.994Z,6.60
2023-05-19T01:45:30.041Z,9.00
2023-05-19T01:47:59.460Z,7.70
2023-05-19T01:50:26.794Z,5.60
2023-05-19T01:52:54.653Z,5.95
2023-05-19T01:55:23.708Z,5.28
2023-05-19T01:58:21.780Z,4.85
2023-05-19T02:01:11.072Z,7.10
2023-05-19T02:04:14.826Z,7.45
2023-05-19T02:07:03.486Z,10.80
2023-05-19T02:09:42.080Z,8.88
2023-05-19T02:12:17.944Z,10.75
2023-05-19T02:15:02.436Z,5.28
2023-05-19T02:17:33.133Z,10.98
2023-05-19T02:20:00.001Z,8.88
2023-05-19T02:22:26.804Z,8.00
2023-05-19T02:24:53.519Z,9.82
2023-05-19T02:27:20.278Z,11.15
2023-05-19T02:29:47.590Z,9.50
2023-05-19T02:32:15.236Z,10.40
2023-05-19T02:34:45.447Z,12.85
2023-05-19T02:37:15.941Z,17.52
2023-05-19T02:39:43.848Z,10.65
2023-05-19T02:42:12.184Z,9.82
2023-05-19T02:44:39.075Z,9.70
2023-05-19T02:47:05.846Z,5.05
2023-05-19T02:49:35.893Z,7.95
2023-05-19T02:52:03.927Z,6.00
2023-05-19T02:54:31.563Z,4.80
2023-05-19T02:56:58.468Z,12.18
2023-05-19T02:59:25.780Z,16.83
2023-05-19T03:02:00.314Z,10.13
2023-05-19T03:04:28.568Z,7.00
2023-05-19T03:06:55.746Z,12.57
2023-05-19T03:09:22.495Z,7.18
2023-05-19T03:11:49.517Z,8.75
2023-05-19T03:14:16.446Z,8.10
2023-05-19T03:16:43.475Z,11.43
2023-05-19T03:19:10.561Z,8.60
2023-05-19T03:21:37.490Z,6.10
2023-05-19T03:24:04.389Z,8.27
2023-05-19T03:26:31.250Z,6.40
2023-05-19T03:28:58.107Z,7.03
2023-05-19T03:31:24.874Z,8.00
2023-05-19T03:33:52.128Z,6.03
2023-05-19T03:36:19.247Z,7.78
2023-05-19T03:38:46.493Z,5.28
2023-05-19T03:41:13.253Z,7.47
2023-05-19T03:43:40.163Z,6.90
2023-05-19T03:46:08.074Z,8.23
2023-05-19T03:48:46.652Z,12.25
2023-05-19T03:51:34.841Z,9.25
2023-05-19T03:54:08.820Z,6.00
2023-05-19T03:56:40.111Z,8.13
2023-05-19T03:59:07.912Z,9.57
2023-05-19T04:01:36.683Z,7.53
2023-05-19T04:04:03.510Z,10.73
2023-05-19T04:06:31.011Z,4.95
2023-05-19T04:08:57.686Z,6.72
2023-05-19T04:11:24.416Z,6.10
2023-05-19T04:13:51.896Z,7.35
2023-05-19T04:16:18.643Z,5.28
2023-05-19T04:18:46.308Z,8.15
2023-05-19T04:21:13.260Z,6.07
2023-05-19T04:23:40.047Z,7.53
2023-05-19T04:26:06.855Z,5.55
2023-05-19T04:28:36.673Z,6.22
2023-05-19T04:31:03.486Z,5.82
2023-05-19T04:33:30.319Z,5.80
2023-05-19T04:35:58.380Z,8.23
2023-05-19T04:38:25.355Z,10.48
2023-05-19T04:40:52.455Z,10.52
2023-05-19T04:43:19.414Z,10.05
2023-05-19T04:45:47.264Z,15.15
2023-05-19T04:48:15.132Z,10.10
2023-05-19T04:50:42.297Z,11.15
2023-05-19T04:53:10.043Z,13.23
2023-05-19T04:55:38.633Z,9.45
2023-05-19T04:58:06.341Z,17.45
2023-05-19T05:00:35.597Z,7.22
2023-05-19T05:03:05.858Z,11.40
2023-05-19T05:05:34.578Z,11.50
2023-05-19T05:08:01.349Z,6.55
2023-05-19T05:10:32.490Z,6.53
2023-05-19T05:13:00.763Z,8.43
2023-05-19T05:15:29.781Z,7.57
2023-05-19T05:17:59.232Z,5.53
2023-05-19T05:20:26.510Z,12.20
2023-05-19T05:22:53.656Z,10.52
2023-05-19T05:25:21.881Z,9.75
2023-05-19T05:27:49.261Z,7.05
2023-05-19T05:30:18.829Z,9.75
2023-05-19T05:32:47.323Z,9.38
2023-05-19T05:35:31.891Z,7.32
2023-05-19T05:37:59.006Z,10.18
2023-05-19T05:40:26.008Z,3.75
2023-05-19T05:42:55.559Z,13.43
2023-05-19T05:45:23.523Z,6.55
2023-05-19T05:47:51.980Z,3.30
2023-05-19T05:50:19.154Z,6.28
2023-05-19T05:52:47.347Z,5.68
2023-05-19T05:55:17.665Z,5.60
2023-05-19T05:57:44.790Z,5.38
2023-05-19T06:00:15.855Z,8.68
2023-05-19T06:02:47.404Z,6.95
2023-05-19T06:05:15.349Z,4.15
2023-05-19T06:07:43.134Z,7.20
2023-05-19T06:10:14.971Z,12.73
2023-05-19T06:12:43.222Z,12.38
2023-05-19T06:15:11.218Z,4.70
2023-05-19T06:18:01.077Z,5.65
2023-05-19T06:20:28.185Z,4.43
2023-05-19T06:22:56.318Z,4.75
2023-05-19T06:25:26.327Z,6.20
2023-05-19T06:27:53.428Z,6.25
2023-05-19T06:30:21.421Z,5.13
2023-05-19T06:33:05.824Z,5.82
2023-05-19T06:35:32.989Z,5.32
2023-05-19T06:37:59.688Z,6.07
2023-05-19T06:40:27.230Z,8.90
2023-05-19T06:42:54.614Z,3.40
2023-05-19T06:45:30.847Z,9.52
2023-05-19T06:48:00.629Z,4.63
2023-05-19T06:50:28.200Z,4.80
2023-05-19T06:52:54.968Z,8.45
2023-05-19T06:55:21.690Z,9.05
2023-05-19T06:57:49.639Z,4.63
2023-05-19T07:00:20.505Z,5.80
2023-05-19T07:02:51.325Z,10.88
2023-05-19T07:05:19.010Z,7.53
2023-05-19T07:07:50.453Z,12.75
2023-05-19T07:10:21.963Z,7.13
2023-05-19T07:12:49.603Z,5.88
2023-05-19T07:15:18.148Z,5.05
2023-05-19T07:17:45.022Z,6.15
2023-05-19T07:20:12.136Z,6.95
2023-05-19T07:22:40.814Z,6.63
2023-05-19T07:25:08.706Z,4.45
2023-05-19T07:27:35.876Z,4.03
2023-05-19T07:30:04.266Z,5.40
2023-05-19T07:32:31.084Z,7.80
2023-05-19T07:34:57.840Z,2.45
2023-05-19T07:37:24.642Z,4.78
2023-05-19T07:39:51.313Z,7.47
2023-05-19T07:42:18.028Z,4.72
2023-05-19T07:44:44.758Z,4.68
2023-05-19T07:47:11.438Z,4.07
2023-05-19T07:49:38.168Z,4.28
2023-05-19T07:52:05.129Z,6.38
2023-05-19T07:54:31.933Z,7.45
2023-05-19T07:56:58.749Z,5.13
2023-05-19T07:59:25.620Z,2.58
2023-05-19T08:01:52.335Z,5.53
2023-05-19T08:04:19.489Z,3.65
2023-05-19T08:06:47.078Z,5.07
2023-05-19T08:09:13.985Z,4.10
2023-05-19T08:11:41.015Z,4.75
2023-05-19T08:14:07.751Z,9.27
2023-05-19T08:16:34.496Z,4.07
2023-05-19T08:19:02.737Z,5.53
2023-05-19T08:21:29.728Z,7.28
2023-05-19T08:23:57.125Z,4.20
2023-05-19T08:26:24.487Z,5.28
2023-05-19T08:28:51.179Z,6.10
2023-05-19T08:31:18.414Z,7.25
2023-05-19T08:33:45.644Z,6.93
2023-05-19T08:36:12.441Z,4.35
2023-05-19T08:38:39.172Z,12.65
2023-05-19T08:41:06.155Z,3.65
2023-05-19T08:43:32.990Z,5.00
2023-05-19T08:46:00.661Z,4.70
2023-05-19T08:48:31.240Z,6.03
2023-05-19T08:51:18.364Z,6.18
2023-05-19T08:53:50.309Z,3.88
2023-05-19T08:56:21.756Z,3.75
2023-05-19T08:58:50.398Z,7.15
2023-05-19T09:01:18.021Z,4.55
2023-05-19T09:03:49.583Z,6.95
2023-05-19T09:06:16.629Z,6.80
2023-05-19T09:08:44.289Z,2.35
2023-05-19T09:11:12.020Z,5.70
2023-05-19T09:13:39.242Z,9.32
2023-05-19T09:16:06.555Z,2.95
2023-05-19T09:18:33.477Z,6.32
2023-05-19T09:21:02.803Z,6.60
2023-05-19T09:23:32.574Z,4.03
2023-05-19T09:26:03.863Z,8.63
2023-05-19T09:28:33.254Z,8.02
2023-05-19T09:31:06.132Z,6.15
2023-05-19T09:33:34.892Z,2.60
2023-05-19T09:36:03.158Z,5.70
2023-05-19T09:38:29.874Z,4.45
2023-05-19T09:40:58.368Z,4.88
2023-05-19T09:43:29.713Z,7.00
2023-05-19T09:46:15.738Z,6.75
2023-05-19T09:48:42.636Z,3.33
2023-05-19T09:51:12.315Z,3.53
2023-05-19T09:53:39.364Z,3.88
2023-05-19T09:56:08.586Z,3.95
2023-05-19T09:58:36.261Z,5.78
2023-05-19T10:01:04.442Z,3.83
2023-05-19T10:03:35.154Z,4.47
2023-05-19T10:06:04.127Z,4.68
2023-05-19T10:08:32.321Z,4.13
2023-05-19T10:11:00.040Z,1.98
2023-05-19T10:13:29.646Z,2.80
2023-05-19T10:15:59.607Z,2.53
2023-05-19T10:18:29.579Z,3.28
2023-05-19T10:20:57.836Z,5.03
2023-05-19T10:23:25.063Z,6.53
2023-05-19T10:25:54.734Z,3.38
2023-05-19T10:28:25.345Z,3.05
2023-05-19T10:30:57.924Z,4.37
2023-05-19T10:33:58.854Z,4.10
2023-05-19T10:36:42.799Z,2.10
2023-05-19T10:39:38.016Z,4.40
2023-05-19T10:42:32.105Z,3.90
2023-05-19T10:45:14.190Z,9.23
2023-05-19T10:47:44.923Z,2.45
2023-05-19T10:50:11.974Z,5.00
2023-05-19T10:52:40.901Z,2.70
2023-05-19T10:55:10.031Z,2.55
2023-05-19T10:57:37.737Z,4.57
2023-05-19T11:00:28.781Z,2.47
2023-05-19T11:03:16.224Z,2.58
2023-05-19T11:05:45.621Z,5.10
2023-05-19T11:08:13.098Z,3.38
2023-05-19T11:10:43.410Z,3.63
2023-05-19T11:13:22.698Z,1.70
2023-05-19T11:15:50.451Z,4.20
2023-05-19T11:18:19.090Z,1.52
2023-05-19T11:20:58.003Z,1.83
2023-05-19T11:23:25.975Z,2.95
2023-05-19T11:25:55.814Z,2.78
2023-05-19T11:28:27.954Z,4.20
2023-05-19T11:30:57.882Z,3.78
2023-05-19T11:33:27.249Z,2.78
2023-05-19T11:35:58.052Z,3.90
2023-05-19T11:38:25.451Z,3.15
2023-05-19T11:40:56.423Z,2.05
2023-05-19T11:43:26.719Z,2.90
2023-05-19T11:45:54.718Z,5.88
2023-05-19T11:48:22.489Z,2.90
2023-05-19T11:50:49.781Z,2.60
2023-05-19T11:53:16.924Z,3.95
2023-05-19T11:55:47.942Z,1.70
2023-05-19T11:58:16.278Z,1.70
2023-05-19T12:00:46.028Z,1.80
2023-05-19T12:03:13.361Z,2.22
2023-05-19T12:05:47.955Z,2.88
2023-05-19T12:08:17.102Z,4.00
2023-05-19T12:10:43.866Z,2.63
2023-05-19T12:13:11.038Z,3.13
2023-05-19T12:15:38.013Z,2.42
2023-05-19T12:18:04.789Z,3.15
2023-05-19T12:20:32.714Z,2.75
2023-05-19T12:23:01.129Z,1.52
2023-05-19T12:25:29.618Z,1.17
2023-05-19T12:28:00.610Z,1.92
2023-05-19T12:30:28.997Z,2.38
2023-05-19T12:32:59.197Z,3.75
2023-05-19T12:35:28.020Z,2.28
2023-05-19T12:37:55.087Z,3.25
2023-05-19T12:40:22.112Z,2.08
2023-05-19T12:42:51.973Z,5.45
2023-05-19T12:45:23.066Z,4.70
2023-05-19T12:47:51.076Z,1.52
2023-05-19T12:50:19.932Z,1.33
2023-05-19T12:52:52.789Z,2.67
2023-05-19T12:55:20.926Z,2.53
2023-05-19T12:57:54.838Z,1.05
2023-05-19T13:00:25.430Z,1.88
2023-05-19T13:03:08.649Z,1.58
2023-05-19T13:05:40.660Z,5.63
2023-05-19T13:08:12.033Z,2.78
2023-05-19T13:10:40.810Z,3.47
2023-05-19T13:13:08.904Z,2.88
2023-05-19T13:15:40.448Z,2.75
2023-05-19T13:18:09.237Z,2.42
2023-05-19T13:20:37.430Z,2.15
2023-05-19T13:23:05.702Z,4.20
2023-05-19T13:25:34.163Z,1.58
2023-05-19T13:28:03.853Z,3.08
2023-05-19T13:30:31.583Z,2.50
2023-05-19T13:32:58.623Z,0.95
2023-05-19T13:35:25.332Z,2.38
2023-05-19T13:37:52.284Z,3.70
2023-05-19T13:40:19.228Z,1.80
2023-05-19T13:42:46.501Z,3.35
2023-05-19T13:45:13.655Z,3.83
2023-05-19T13:47:40.438Z,4.93
2023-05-19T13:50:07.874Z,2.20
2023-05-19T13:52:34.613Z,2.58
2023-05-19T13:55:01.391Z,5.50
2023-05-19T13:57:28.129Z,2.28
2023-05-19T14:00:02.418Z,3.30
2023-05-19T14:02:39.299Z,3.28
2023-05-19T14:05:07.620Z,5.90
2023-05-19T14:07:34.993Z,1.33
2023-05-19T14:10:03.881Z,2.53
2023-05-19T14:12:41.308Z,3.47
2023-05-19T14:15:14.482Z,1.15
2023-05-19T14:17:41.604Z,1.00
2023-05-19T14:20:09.485Z,1.35
2023-05-19T14:22:36.163Z,3.00
2023-05-19T14:25:02.883Z,1.58
2023-05-19T14:27:29.649Z,3.53
2023-05-19T14:29:56.410Z,3.03
2023-05-19T14:32:23.192Z,1.90
2023-05-19T14:34:52.797Z,2.08
2023-05-19T14:37:20.321Z,1.55
2023-05-19T14:39:47.060Z,3.20
2023-05-19T14:42:13.801Z,1.30
2023-05-19T14:44:40.985Z,1.35
2023-05-19T14:47:07.836Z,1.40
2023-05-19T14:49:34.689Z,4.88
2023-05-19T14:52:01.540Z,3.35
2023-05-19T14:54:28.240Z,2.55
2023-05-19T14:56:54.980Z,0.90
2023-05-19T14:59:21.805Z,3.20
2023-05-19T15:01:48.750Z,1.40
2023-05-19T15:04:15.671Z,3.33
2023-05-19T15:06:42.599Z,2.17
2023-05-19T15:09:09.427Z,3.50
2023-05-19T15:11:36.221Z,2.67
2023-05-19T15:14:02.931Z,7.20
2023-05-19T15:16:30.205Z,2.90
2023-05-19T15:18:57.057Z,2.58
2023-05-19T15:21:23.825Z,2.30
2023-05-19T15:23:50.567Z,2.63
2023-05-19T15:26:17.400Z,1.23
2023-05-19T15:28:44.122Z,0.63
2023-05-19T15:31:10.926Z,3.83
2023-05-19T15:33:37.704Z,1.10
2023-05-19T15:36:04.631Z,1.33
2023-05-19T15:38:35.470Z,1.80
2023-05-19T15:41:06.767Z,1.00
2023-05-19T15:43:33.603Z,3.85
2023-05-19T15:46:00.852Z,2.00
2023-05-19T15:48:29.008Z,4.13
2023-05-19T15:50:58.050Z,3.92
2023-05-19T15:53:25.677Z,1.52
2023-05-19T15:55:52.404Z,2.05
2023-05-19T15:58:19.181Z,0.93
2023-05-19T16:00:46.046Z,1.60
2023-05-19T16:03:12.830Z,4.63
2023-05-19T16:05:39.766Z,2.35
2023-05-19T16:08:08.535Z,2.42
2023-05-19T16:10:35.728Z,10.30
2023-05-19T16:13:02.714Z,5.70
2023-05-19T16:15:29.470Z,2.63
2023-05-19T16:17:56.788Z,4.28
2023-05-19T16:20:27.789Z,1.77
2023-05-19T16:22:55.388Z,5.47
2023-05-19T16:25:22.301Z,1.50
2023-05-19T16:27:49.197Z,1.10
2023-05-19T16:30:16.549Z,1.55
2023-05-19T16:32:43.768Z,1.95
2023-05-19T16:35:10.831Z,2.30
2023-05-19T16:37:38.052Z,1.90
2023-05-19T16:40:05.254Z,1.67
2023-05-19T16:42:32.345Z,0.98
2023-05-19T16:44:59.074Z,1.40
2023-05-19T16:47:25.776Z,1.40
2023-05-19T16:49:52.657Z,2.55
2023-05-19T16:52:20.042Z,1.92
2023-05-19T16:54:46.804Z,4.05
2023-05-19T16:57:14.778Z,2.67
2023-05-19T16:59:41.870Z,2.03
2023-05-19T17:02:08.871Z,2.10
2023-05-19T17:04:35.649Z,2.22
2023-05-19T17:07:02.668Z,4.57
2023-05-19T17:09:29.395Z,2.30
2023-05-19T17:11:56.440Z,5.00
2023-05-19T17:14:23.200Z,3.78
2023-05-19T17:16:50.259Z,1.02
2023-05-19T17:19:17.081Z,3.17
2023-05-19T17:21:43.981Z,0.98
2023-05-19T17:24:11.010Z,2.22
2023-05-19T17:26:37.849Z,5.80
2023-05-19T17:29:05.446Z,1.80
2023-05-19T17:31:32.266Z,2.17
2023-05-19T17:33:58.977Z,2.42
2023-05-19T17:36:26.390Z,2.03
2023-05-19T17:38:53.097Z,2.35
2023-05-19T17:41:19.888Z,5.25
2023-05-19T17:43:46.662Z,3.33
2023-05-19T17:46:13.411Z,5.70
2023-05-19T17:48:40.230Z,1.15
2023-05-19T17:51:07.409Z,1.50
2023-05-19T17:53:35.611Z,0.93
2023-05-19T17:56:03.821Z,1.55
2023-05-19T17:58:30.941Z,1.20
2023-05-19T18:00:57.929Z,1.20
2023-05-19T18:03:24.985Z,0.80
2023-05-19T18:05:52.111Z,3.92
2023-05-19T18:08:19.219Z,2.42
2023-05-19T18:10:48.418Z,1.08
2023-05-19T18:13:15.212Z,2.08
2023-05-19T18:15:42.030Z,2.13
2023-05-19T18:18:10.709Z,1.80
2023-05-19T18:20:39.341Z,1.45
2023-05-19T18:23:06.334Z,1.08
2023-05-19T18:25:33.084Z,2.30
2023-05-19T18:27:59.806Z,1.92
2023-05-19T18:30:26.577Z,2.50
2023-05-19T18:32:53.357Z,1.13
2023-05-19T18:35:21.239Z,3.13
2023-05-19T18:37:48.125Z,2.70
2023-05-19T18:40:14.798Z,1.63
2023-05-19T18:42:41.615Z,1.70
2023-05-19T18:45:08.698Z,2.72
2023-05-19T18:47:35.875Z,1.35
2023-05-19T18:50:02.791Z,0.90
2023-05-19T18:52:31.299Z,2.75
2023-05-19T18:55:00.241Z,6.20
2023-05-19T18:57:27.715Z,5.05
2023-05-19T18:59:54.470Z,1.67
2023-05-19T19:02:21.192Z,4.28
2023-05-19T19:04:48.021Z,2.15
2023-05-19T19:07:14.942Z,1.33
2023-05-19T19:09:43.526Z,4.15
2023-05-19T19:12:10.819Z,1.10
2023-05-19T19:14:37.620Z,1.00
2023-05-19T19:17:04.442Z,1.83
2023-05-19T19:19:31.340Z,1.40
2023-05-19T19:21:58.162Z,3.10
2023-05-19T19:24:26.349Z,1.05
2023-05-19T19:26:53.057Z,2.15
2023-05-19T19:29:21.833Z,1.33
2023-05-19T19:31:48.909Z,1.52
2023-05-19T19:34:15.857Z,2.15
2023-05-19T19:36:42.664Z,1.05
2023-05-19T19:39:09.450Z,3.00
2023-05-19T19:41:36.653Z,2.13
2023-05-19T19:44:03.863Z,0.93
2023-05-19T19:46:30.623Z,4.13
2023-05-19T19:49:00.627Z,1.20
2023-05-19T19:51:28.254Z,1.45
2023-05-19T19:53:55.343Z,1.80
2023-05-19T19:56:24.522Z,3.40
2023-05-19T19:58:51.393Z,3.15
2023-05-19T20:01:20.404Z,3.05
2023-05-19T20:03:48.372Z,3.55
2023-05-19T20:06:15.336Z,3.05
2023-05-19T20:08:42.151Z,2.03
2023-05-19T20:11:09.038Z,2.42
2023-05-19T20:13:35.890Z,1.88
2023-05-19T20:16:02.710Z,4.55
2023-05-19T20:18:29.908Z,2.00
2023-05-19T20:20:56.890Z,5.55
2023-05-19T20:23:23.635Z,4.32
2023-05-19T20:26:09.353Z,1.73
2023-05-19T20:28:37.424Z,3.72
2023-05-19T20:31:05.695Z,2.03
2023-05-19T20:33:32.446Z,1.83
2023-05-19T20:35:59.192Z,1.67
2023-05-19T20:38:25.966Z,3.03
2023-05-19T20:40:54.273Z,1.67
2023-05-19T20:43:21.235Z,1.88
2023-05-19T20:45:48.193Z,2.38
2023-05-19T20:48:15.925Z,4.78
2023-05-19T20:50:43.022Z,1.48
2023-05-19T20:53:09.737Z,3.17
2023-05-19T20:55:37.825Z,2.42
2023-05-19T20:58:04.518Z,0.90
2023-05-19T21:00:31.282Z,1.83
2023-05-19T21:02:58.169Z,1.73
2023-05-19T21:05:25.013Z,1.67
2023-05-19T21:07:51.820Z,4.32
2023-05-19T21:10:18.662Z,2.72
2023-05-19T21:12:45.608Z,3.05
2023-05-19T21:15:12.394Z,5.32
2023-05-19T21:17:39.190Z,1.58
2023-05-19T21:20:06.471Z,1.27
2023-05-19T21:22:35.538Z,3.78
2023-05-19T21:25:02.727Z,1.98
2023-05-19T21:27:31.974Z,1.23
2023-05-19T21:29:58.662Z,1.88
2023-05-19T21:32:26.081Z,1.95
2023-05-19T21:34:53.014Z,2.35
2023-05-19T21:37:21.136Z,4.18
2023-05-19T21:39:48.684Z,2.53
2023-05-19T21:42:15.527Z,3.30
2023-05-19T21:44:42.252Z,5.97
2023-05-19T21:47:08.956Z,2.88
2023-05-19T21:49:35.880Z,5.15
2023-05-19T21:52:02.765Z,0.75
2023-05-19T21:54:29.982Z,2.17
2023-05-19T21:56:56.703Z,1.65
2023-05-19T21:59:24.686Z,1.30
2023-05-19T22:01:51.859Z,3.72
2023-05-19T22:04:18.897Z,1.92
2023-05-19T22:06:46.039Z,4.63
2023-05-19T22:09:13.301Z,3.65
2023-05-19T22:11:40.480Z,4.13
2023-05-19T22:14:07.183Z,2.20
2023-05-19T22:16:34.226Z,2.25
2023-05-19T22:19:02.410Z,3.17
2023-05-19T22:21:29.199Z,1.98
2023-05-19T22:23:56.019Z,1.70
2023-05-19T22:26:22.787Z,4.63
2023-05-19T22:28:50.168Z,4.47
2023-05-19T22:31:17.634Z,1.20
2023-05-19T22:33:44.722Z,1.35
2023-05-19T22:36:11.557Z,1.83
2023-05-19T22:38:38.355Z,5.80
2023-05-19T22:41:05.466Z,3.30
2023-05-19T22:43:32.281Z,1.30
2023-05-19T22:45:59.058Z,3.13
2023-05-19T22:48:26.031Z,2.80
2023-05-19T22:50:52.793Z,3.10
2023-05-19T22:53:19.508Z,3.95
2023-05-19T22:55:46.541Z,4.20
2023-05-19T22:58:13.251Z,1.92
2023-05-19T23:00:39.977Z,2.75
2023-05-19T23:03:06.816Z,2.97
2023-05-19T23:05:34.142Z,3.50
2023-05-19T23:08:01.143Z,3.47
2023-05-19T23:10:27.890Z,4.85
2023-05-19T23:12:54.797Z,1.85
2023-05-19T23:15:21.505Z,3.40
2023-05-19T23:17:48.249Z,2.72
2023-05-19T23:20:15.809Z,3.45
2023-05-19T23:22:43.661Z,5.40
2023-05-19T23:25:10.396Z,6.53
2023-05-19T23:27:37.124Z,1.60
2023-05-19T23:30:04.537Z,2.55
2023-05-19T23:32:31.282Z,3.92
2023-05-19T23:34:58.053Z,2.08
2023-05-19T23:37:24.892Z,2.92
2023-05-19T23:39:51.658Z,3.08
2023-05-19T23:42:18.388Z,1.42
2023-05-19T23:44:45.143Z,2.90
2023-05-19T23:47:11.849Z,7.70
2023-05-19T23:49:38.662Z,7.07
2023-05-19T23:52:05.761Z,1.52
2023-05-19T23:54:32.482Z,2.83
2023-05-19T23:56:59.345Z,1.63
2023-05-19T23:59:26.052Z,2.90
